sensor_id;sensor_type;location;lat;lon;timestamp;pressure;altitude;pressure_sealevel;temperature;humidity
5879;BME280;2965;42.640;23.370;2023-01-31T05:00:46;94144.59;;;-0.18;100.00
5879;BME280;2965;42.640;23.370;2023-01-31T05:03:12;94146.13;;;-0.16;100.00
5879;BME280;2965;42.640;23.370;2023-01-31T05:05:38;94150.44;;;-0.16;100.00
5879;BME280;2965;42.640;23.370;2023-01-31T05:08:04;94148.13;;;-0.19;100.00
5879;BME280;2965;42.640;23.370;2023-01-31T05:10:30;94155.16;;;-0.21;100.00
5879;BME280;2965;42.640;23.370;2023-01-31T05:12:55;94139.06;;;-0.14;100.00
5879;BME280;2965;42.640;23.370;2023-01-31T05:15:20;94143.41;;;-0.14;100.00
5879;BME280;2965;42.640;23.370;2023-01-31T05:17:53;94138.25;;;-0.14;100.00
5879;BME280;2965;42.640;23.370;2023-01-31T05:20:27;94126.59;;;-0.18;100.00
5879;BME280;2965;42.640;23.370;2023-01-31T05:22:53;94146.41;;;-0.09;100.00
5879;BME280;2965;42.640;23.370;2023-01-31T05:25:18;94143.72;;;-0.08;100.00
5879;BME280;2965;42.640;23.370;2023-01-31T05:27:43;94151.31;;;-0.06;100.00
5879;BME280;2965;42.640;23.370;2023-01-31T05:30:10;94151.06;;;-0.03;100.00
5879;BME280;2965;42.640;23.370;2023-01-31T05:32:35;94147.53;;;-0.02;100.00
5879;BME280;2965;42.640;23.370;2023-01-31T05:35:01;94156.63;;;0.02;100.00
5879;BME280;2965;42.640;23.370;2023-01-31T05:37:27;94155.00;;;0.01;100.00
5879;BME280;2965;42.640;23.370;2023-01-31T05:39:52;94159.19;;;0.02;100.00
5879;BME280;2965;42.640;23.370;2023-01-31T05:42:17;94162.44;;;0.04;100.00
5879;BME280;2965;42.640;23.370;2023-01-31T05:44:43;94160.56;;;0.06;100.00
5879;BME280;2965;42.640;23.370;2023-01-31T05:47:08;94159.19;;;0.02;100.00
5879;BME280;2965;42.640;23.370;2023-01-31T05:49:33;94172.47;;;0.07;100.00
5879;BME280;2965;42.640;23.370;2023-01-31T05:51:59;94164.25;;;0.13;100.00
5879;BME280;2965;42.640;23.370;2023-01-31T05:54:25;94168.72;;;0.11;100.00
5879;BME280;2965;42.640;23.370;2023-01-31T05:56:50;94178.19;;;0.11;100.00
5879;BME280;2965;42.640;23.370;2023-01-31T05:59:15;94175.47;;;0.12;100.00
5879;BME280;2965;42.640;23.370;2023-01-31T06:01:41;94160.84;;;0.13;100.00
5879;BME280;2965;42.640;23.370;2023-01-31T06:04:06;94185.28;;;0.18;100.00
5879;BME280;2965;42.640;23.370;2023-01-31T06:06:32;94175.41;;;0.23;100.00
5879;BME280;2965;42.640;23.370;2023-01-31T06:08:57;94173.22;;;0.19;100.00
5879;BME280;2965;42.640;23.370;2023-01-31T06:11:22;94175.53;;;0.22;100.00
5879;BME280;2965;42.640;23.370;2023-01-31T06:13:49;94179.84;;;0.21;100.00
5879;BME280;2965;42.640;23.370;2023-01-31T06:16:15;94183.13;;;0.23;100.00
5879;BME280;2965;42.640;23.370;2023-01-31T06:18:40;94177.47;;;0.30;100.00
5879;BME280;2965;42.640;23.370;2023-01-31T06:21:06;94177.47;;;0.30;100.00
5879;BME280;2965;42.640;23.370;2023-01-31T06:23:31;94189.94;;;0.34;100.00
5879;BME280;2965;42.640;23.370;2023-01-31T06:25:58;94205.13;;;0.37;100.00
5879;BME280;2965;42.640;23.370;2023-01-31T06:28:24;94191.16;;;0.40;100.00
5879;BME280;2965;42.640;23.370;2023-01-31T06:30:49;94210.03;;;0.40;100.00
5879;BME280;2965;42.640;23.370;2023-01-31T06:33:15;94201.91;;;0.45;100.00
5879;BME280;2965;42.640;23.370;2023-01-31T06:35:41;94201.63;;;0.48;100.00
5879;BME280;2965;42.640;23.370;2023-01-31T06:38:06;94207.06;;;0.45;100.00
5879;BME280;2965;42.640;23.370;2023-01-31T06:40:33;94200.81;;;0.47;100.00
5879;BME280;2965;42.640;23.370;2023-01-31T06:43:00;94202.19;;;0.52;100.00
5879;BME280;2965;42.640;23.370;2023-01-31T06:45:25;94205.34;;;0.55;100.00
5879;BME280;2965;42.640;23.370;2023-01-31T06:47:50;94215.88;;;0.52;100.00
5879;BME280;2965;42.640;23.370;2023-01-31T06:50:16;94210.47;;;0.55;100.00
5879;BME280;2965;42.640;23.370;2023-01-31T06:52:42;94221.72;;;0.54;100.00
5879;BME280;2965;42.640;23.370;2023-01-31T06:55:08;94219.00;;;0.56;100.00
5879;BME280;2965;42.640;23.370;2023-01-31T06:57:33;94235.50;;;0.53;100.00
5879;BME280;2965;42.640;23.370;2023-01-31T06:59:58;94239.03;;;0.52;100.00
5879;BME280;2965;42.640;23.370;2023-01-31T07:02:24;94237.97;;;0.55;100.00
5879;BME280;2965;42.640;23.370;2023-01-31T07:04:50;94231.75;;;0.57;100.00
5879;BME280;2965;42.640;23.370;2023-01-31T07:07:15;94221.44;;;0.57;100.00
5879;BME280;2965;42.640;23.370;2023-01-31T07:09:41;94229.34;;;0.65;100.00
5879;BME280;2965;42.640;23.370;2023-01-31T07:12:06;94225.41;;;0.61;100.00
5879;BME280;2965;42.640;23.370;2023-01-31T07:14:31;94231.25;;;0.63;100.00
5879;BME280;2965;42.640;23.370;2023-01-31T07:16:57;94225.81;;;0.66;100.00
5879;BME280;2965;42.640;23.370;2023-01-31T07:19:22;94233.19;;;0.71;100.00
5879;BME280;2965;42.640;23.370;2023-01-31T07:21:48;94234.66;;;0.73;100.00
5879;BME280;2965;42.640;23.370;2023-01-31T07:24:16;94232.22;;;0.72;100.00
5879;BME280;2965;42.640;23.370;2023-01-31T07:26:42;94238.84;;;0.74;100.00
5879;BME280;2965;42.640;23.370;2023-01-31T07:29:08;94230.22;;;0.75;100.00
5879;BME280;2965;42.640;23.370;2023-01-31T07:31:33;94229.94;;;0.79;100.00
5879;BME280;2965;42.640;23.370;2023-01-31T07:33:59;94227.50;;;0.77;100.00
5879;BME280;2965;42.640;23.370;2023-01-31T07:36:24;94246.34;;;0.78;100.00
5879;BME280;2965;42.640;23.370;2023-01-31T07:38:55;94238.59;;;0.78;100.00
5879;BME280;2965;42.640;23.370;2023-01-31T07:41:24;94232.50;;;0.79;100.00
5879;BME280;2965;42.640;23.370;2023-01-31T07:43:49;94229.94;;;0.79;100.00
5879;BME280;2965;42.640;23.370;2023-01-31T07:46:16;94233.19;;;0.81;100.00
5879;BME280;2965;42.640;23.370;2023-01-31T07:48:41;94227.66;;;0.85;100.00
5879;BME280;2965;42.640;23.370;2023-01-31T07:51:07;94237.28;;;0.93;100.00
5879;BME280;2965;42.640;23.370;2023-01-31T07:53:35;94235.25;;;0.87;100.00
5879;BME280;2965;42.640;23.370;2023-01-31T07:56:08;94237.81;;;0.87;100.00
5879;BME280;2965;42.640;23.370;2023-01-31T07:58:34;94234.84;;;0.91;100.00
5879;BME280;2965;42.640;23.370;2023-01-31T08:01:00;94244.09;;;0.94;100.00
5879;BME280;2965;42.640;23.370;2023-01-31T08:03:44;94224.28;;;0.94;100.00
5879;BME280;2965;42.640;23.370;2023-01-31T08:06:11;94223.47;;;0.94;100.00
5879;BME280;2965;42.640;23.370;2023-01-31T08:08:38;94220.50;;;0.98;100.00
5879;BME280;2965;42.640;23.370;2023-01-31T08:11:04;94226.22;;;1.02;100.00
5879;BME280;2965;42.640;23.370;2023-01-31T08:13:38;94231.63;;;0.99;100.00
5879;BME280;2965;42.640;23.370;2023-01-31T08:16:05;94221.56;;;0.96;100.00
5879;BME280;2965;42.640;23.370;2023-01-31T08:18:32;94221.06;;;1.02;100.00
5879;BME280;2965;42.640;23.370;2023-01-31T08:20:58;94219.56;;;1.09;100.00
5879;BME280;2965;42.640;23.370;2023-01-31T08:23:24;94228.13;;;1.19;100.00
5879;BME280;2965;42.640;23.370;2023-01-31T08:25:49;94212.13;;;1.25;100.00
5879;BME280;2965;42.640;23.370;2023-01-31T08:28:15;94225.44;;;1.31;100.00
5879;BME280;2965;42.640;23.370;2023-01-31T08:30:41;94206.97;;;1.45;100.00
5879;BME280;2965;42.640;23.370;2023-01-31T08:33:08;94213.34;;;1.50;100.00
5879;BME280;2965;42.640;23.370;2023-01-31T08:35:34;94209.44;;;1.56;100.00
5879;BME280;2965;42.640;23.370;2023-01-31T08:37:59;94215.13;;;1.50;100.00
5879;BME280;2965;42.640;23.370;2023-01-31T08:40:25;94208.91;;;1.43;100.00
5879;BME280;2965;42.640;23.370;2023-01-31T08:42:55;94206.97;;;1.45;100.00
5879;BME280;2965;42.640;23.370;2023-01-31T08:45:20;94213.75;;;1.46;100.00
5879;BME280;2965;42.640;23.370;2023-01-31T08:47:45;94221.94;;;1.51;100.00
5879;BME280;2965;42.640;23.370;2023-01-31T08:50:11;94212.69;;;1.58;100.00
5879;BME280;2965;42.640;23.370;2023-01-31T08:52:36;94223.81;;;1.49;100.00
5879;BME280;2965;42.640;23.370;2023-01-31T08:55:01;94208.09;;;1.42;100.00
5879;BME280;2965;42.640;23.370;2023-01-31T08:57:28;94223.16;;;1.47;100.00
5879;BME280;2965;42.640;23.370;2023-01-31T08:59:53;94219.63;;;1.48;100.00
5879;BME280;2965;42.640;23.370;2023-01-31T09:02:20;94220.03;;;1.53;100.00
5879;BME280;2965;42.640;23.370;2023-01-31T09:04:45;94212.16;;;1.64;100.00
5879;BME280;2965;42.640;23.370;2023-01-31T09:07:10;94227.59;;;1.84;100.00
5879;BME280;2965;42.640;23.370;2023-01-31T09:09:36;94227.56;;;2.03;100.00
5879;BME280;2965;42.640;23.370;2023-01-31T09:12:02;94219.13;;;2.20;100.00
5879;BME280;2965;42.640;23.370;2023-01-31T09:14:28;94221.09;;;2.46;100.00
5879;BME280;2965;42.640;23.370;2023-01-31T09:16:55;94220.25;;;2.55;100.00
5879;BME280;2965;42.640;23.370;2023-01-31T09:19:21;94234.28;;;2.43;100.00
5879;BME280;2965;42.640;23.370;2023-01-31T09:21:47;94216.53;;;2.20;100.00
5879;BME280;2965;42.640;23.370;2023-01-31T09:24:13;94214.47;;;2.34;100.00
5879;BME280;2965;42.640;23.370;2023-01-31T09:26:38;94209.19;;;2.25;100.00
5879;BME280;2965;42.640;23.370;2023-01-31T09:29:03;94213.63;;;2.43;100.00
5879;BME280;2965;42.640;23.370;2023-01-31T09:31:29;94204.44;;;2.31;100.00
5879;BME280;2965;42.640;23.370;2023-01-31T09:33:55;94214.19;;;2.37;100.00
5879;BME280;2965;42.640;23.370;2023-01-31T09:36:22;94206.78;;;2.61;100.00
5879;BME280;2965;42.640;23.370;2023-01-31T09:38:52;94189.53;;;2.52;100.00
5879;BME280;2965;42.640;23.370;2023-01-31T09:41:22;94191.25;;;2.71;100.00
5879;BME280;2965;42.640;23.370;2023-01-31T09:43:53;94188.28;;;2.66;100.00
5879;BME280;2965;42.640;23.370;2023-01-31T09:46:25;94173.97;;;2.44;100.00
5879;BME280;2965;42.640;23.370;2023-01-31T09:48:54;94190.50;;;2.51;100.00
5879;BME280;2965;42.640;23.370;2023-01-31T09:51:20;94182.47;;;2.82;100.00
5879;BME280;2965;42.640;23.370;2023-01-31T09:53:46;94187.91;;;2.78;100.00
5879;BME280;2965;42.640;23.370;2023-01-31T09:59:20;94176.31;;;2.92;100.00
5879;BME280;2965;42.640;23.370;2023-01-31T10:01:59;94183.59;;;3.24;100.00
5879;BME280;2965;42.640;23.370;2023-01-31T10:07:40;94179.88;;;3.45;100.00
5879;BME280;2965;42.640;23.370;2023-01-31T10:10:31;94171.31;;;3.62;100.00
5879;BME280;2965;42.640;23.370;2023-01-31T10:13:03;94173.81;;;3.36;100.00
5879;BME280;2965;42.640;23.370;2023-01-31T10:15:38;94191.88;;;3.00;100.00
5879;BME280;2965;42.640;23.370;2023-01-31T10:20:49;94179.50;;;2.49;100.00
5879;BME280;2965;42.640;23.370;2023-01-31T10:25:58;94166.69;;;2.57;100.00
5879;BME280;2965;42.640;23.370;2023-01-31T10:31:00;94186.50;;;2.94;100.00
5879;BME280;2965;42.640;23.370;2023-01-31T10:36:21;94152.88;;;2.76;100.00
5879;BME280;2965;42.640;23.370;2023-01-31T10:44:41;94168.63;;;3.18;100.00
5879;BME280;2965;42.640;23.370;2023-01-31T10:47:13;94171.91;;;3.20;100.00
5879;BME280;2965;42.640;23.370;2023-01-31T10:49:44;94172.28;;;3.25;100.00
5879;BME280;2965;42.640;23.370;2023-01-31T10:55:39;94176.94;;;3.40;100.00
5879;BME280;2965;42.640;23.370;2023-01-31T10:58:16;94184.09;;;3.10;100.00
5879;BME280;2965;42.640;23.370;2023-01-31T11:00:42;94184.63;;;2.86;100.00
5879;BME280;2965;42.640;23.370;2023-01-31T11:03:10;94172.13;;;2.82;100.00
5879;BME280;2965;42.640;23.370;2023-01-31T11:05:48;94176.25;;;2.74;100.00
5879;BME280;2965;42.640;23.370;2023-01-31T11:10:57;94180.47;;;2.48;100.00
5879;BME280;2965;42.640;23.370;2023-01-31T11:13:28;94174.50;;;2.38;100.00
5879;BME280;2965;42.640;23.370;2023-01-31T11:15:53;94178.06;;;2.37;100.00
5879;BME280;2965;42.640;23.370;2023-01-31T11:20:54;94169.44;;;2.18;100.00
5879;BME280;2965;42.640;23.370;2023-01-31T11:23:23;94183.56;;;2.14;100.00
5879;BME280;2965;42.640;23.370;2023-01-31T11:25:50;94170.38;;;2.17;100.00
5879;BME280;2965;42.640;23.370;2023-01-31T11:30:47;94185.38;;;2.04;100.00
5879;BME280;2965;42.640;23.370;2023-01-31T11:33:40;94179.78;;;1.99;100.00
5879;BME280;2965;42.640;23.370;2023-01-31T11:36:12;94179.81;;;1.80;100.00
5879;BME280;2965;42.640;23.370;2023-01-31T11:38:38;94182.00;;;1.74;100.00
5879;BME280;2965;42.640;23.370;2023-01-31T11:41:35;94174.41;;;1.83;100.00
5879;BME280;2965;42.640;23.370;2023-01-31T11:44:06;94166.94;;;1.80;100.00
5879;BME280;2965;42.640;23.370;2023-01-31T11:46:41;94167.88;;;1.79;100.00
5879;BME280;2965;42.640;23.370;2023-01-31T11:49:12;94165.69;;;1.84;100.00
5879;BME280;2965;42.640;23.370;2023-01-31T11:51:38;94161.75;;;1.89;100.00
5879;BME280;2965;42.640;23.370;2023-01-31T11:56:42;94162.84;;;1.77;100.00
5879;BME280;2965;42.640;23.370;2023-01-31T11:59:14;94167.38;;;1.65;100.00
5879;BME280;2965;42.640;23.370;2023-01-31T12:01:49;94165.88;;;1.63;100.00
5879;BME280;2965;42.640;23.370;2023-01-31T12:04:17;94164.91;;;1.54;100.00
5879;BME280;2965;42.640;23.370;2023-01-31T12:07:43;94164.69;;;1.38;100.00
5879;BME280;2965;42.640;23.370;2023-01-31T12:09:43;94164.69;;;1.38;100.00
5879;BME280;2965;42.640;23.370;2023-01-31T12:14:46;94162.50;;;1.43;100.00
5879;BME280;2965;42.640;23.370;2023-01-31T12:17:13;94160.88;;;1.51;100.00
5879;BME280;2965;42.640;23.370;2023-01-31T12:22:38;94158.97;;;1.44;100.00
5879;BME280;2965;42.640;23.370;2023-01-31T12:25:28;94143.50;;;1.44;100.00
5879;BME280;2965;42.640;23.370;2023-01-31T12:28:07;94157.59;;;1.40;100.00
5879;BME280;2965;42.640;23.370;2023-01-31T12:42:37;94176.28;;;1.81;100.00
5879;BME280;2965;42.640;23.370;2023-01-31T12:48:19;94168.56;;;1.81;100.00
5879;BME280;2965;42.640;23.370;2023-01-31T12:51:27;94173.44;;;1.84;100.00
5879;BME280;2965;42.640;23.370;2023-01-31T13:00:23;94178.22;;;1.79;100.00
5879;BME280;2965;42.640;23.370;2023-01-31T13:03:30;94180.63;;;1.80;100.00
5879;BME280;2965;42.640;23.370;2023-01-31T13:06:06;94182.03;;;1.65;100.00
5879;BME280;2965;42.640;23.370;2023-01-31T13:08:34;94170.09;;;1.35;100.00
5879;BME280;2965;42.640;23.370;2023-01-31T13:11:42;94181.72;;;1.19;100.00
5879;BME280;2965;42.640;23.370;2023-01-31T13:14:15;94188.53;;;1.20;100.00
5879;BME280;2965;42.640;23.370;2023-01-31T13:16:43;94176.72;;;1.27;100.00
5879;BME280;2965;42.640;23.370;2023-01-31T13:19:33;94180.66;;;1.32;100.00
5879;BME280;2965;42.640;23.370;2023-01-31T13:22:54;94184.59;;;1.36;100.00
5879;BME280;2965;42.640;23.370;2023-01-31T13:25:17;94189.09;;;1.43;100.00
5879;BME280;2965;42.640;23.370;2023-01-31T13:30:59;94185.00;;;1.41;100.00
5879;BME280;2965;42.640;23.370;2023-01-31T13:33:31;94199.94;;;1.47;100.00
5879;BME280;2965;42.640;23.370;2023-01-31T13:36:00;94201.56;;;1.48;100.00
5879;BME280;2965;42.640;23.370;2023-01-31T13:38:36;94198.03;;;1.49;100.00
5879;BME280;2965;42.640;23.370;2023-01-31T13:41:04;94196.81;;;1.43;100.00
5879;BME280;2965;42.640;23.370;2023-01-31T13:43:31;94203.75;;;1.52;100.00
5879;BME280;2965;42.640;23.370;2023-01-31T13:46:04;94187.19;;;1.55;100.00
5879;BME280;2965;42.640;23.370;2023-01-31T13:48:39;94196.56;;;1.56;100.00
5879;BME280;2965;42.640;23.370;2023-01-31T13:51:10;94193.97;;;1.46;100.00
5879;BME280;2965;42.640;23.370;2023-01-31T13:56:20;94199.13;;;1.46;100.00
5879;BME280;2965;42.640;23.370;2023-01-31T13:58:48;94188.53;;;1.40;100.00
5879;BME280;2965;42.640;23.370;2023-01-31T14:01:20;94200.47;;;1.41;100.00
5879;BME280;2965;42.640;23.370;2023-01-31T14:14:55;94213.75;;;1.46;100.00
5879;BME280;2965;42.640;23.370;2023-01-31T14:29:47;94213.50;;;1.49;100.00
5879;BME280;2965;42.640;23.370;2023-01-31T14:32:30;94208.59;;;1.46;100.00
5879;BME280;2965;42.640;23.370;2023-01-31T14:34:58;94218.91;;;1.46;100.00
5879;BME280;2965;42.640;23.370;2023-01-31T14:42:43;94230.34;;;1.53;100.00
5879;BME280;2965;42.640;23.370;2023-01-31T14:47:52;94237.66;;;1.48;100.00
5879;BME280;2965;42.640;23.370;2023-01-31T14:58:26;94264.50;;;1.36;100.00
5879;BME280;2965;42.640;23.370;2023-01-31T15:00:55;94260.44;;;1.33;100.00
5879;BME280;2965;42.640;23.370;2023-01-31T15:03:25;94261.78;;;1.27;100.00
5879;BME280;2965;42.640;23.370;2023-01-31T15:05:55;94263.44;;;1.29;100.00
5879;BME280;2965;42.640;23.370;2023-01-31T15:08:34;94268.56;;;1.29;100.00
5879;BME280;2965;42.640;23.370;2023-01-31T15:13:53;94268.84;;;1.25;100.00
5879;BME280;2965;42.640;23.370;2023-01-31T15:19:17;94274.50;;;1.19;100.00
5879;BME280;2965;42.640;23.370;2023-01-31T15:21:55;94298.63;;;1.18;100.00
5879;BME280;2965;42.640;23.370;2023-01-31T15:24:31;94298.94;;;1.15;100.00
5879;BME280;2965;42.640;23.370;2023-01-31T15:26:59;94294.03;;;1.12;100.00
5879;BME280;2965;42.640;23.370;2023-01-31T15:29:32;94292.41;;;1.11;100.00
5879;BME280;2965;42.640;23.370;2023-01-31T15:32:05;94295.22;;;1.08;100.00
5879;BME280;2965;42.640;23.370;2023-01-31T15:34:40;94304.84;;;1.06;100.00
5879;BME280;2965;42.640;23.370;2023-01-31T15:37:18;94292.25;;;1.03;100.00
5879;BME280;2965;42.640;23.370;2023-01-31T15:39:54;94294.81;;;1.03;100.00
5879;BME280;2965;42.640;23.370;2023-01-31T15:42:31;94299.97;;;1.03;100.00
5879;BME280;2965;42.640;23.370;2023-01-31T15:45:28;94300.91;;;1.02;100.00
5879;BME280;2965;42.640;23.370;2023-01-31T15:47:58;94299.97;;;1.03;100.00
5879;BME280;2965;42.640;23.370;2023-01-31T15:50:24;94299.97;;;1.03;100.00
5879;BME280;2965;42.640;23.370;2023-01-31T15:52:50;94316.38;;;1.02;100.00
5879;BME280;2965;42.640;23.370;2023-01-31T15:55:17;94317.19;;;1.03;100.00
5879;BME280;2965;42.640;23.370;2023-01-31T15:57:52;94315.69;;;1.00;100.00
5879;BME280;2965;42.640;23.370;2023-01-31T16:00:35;94324.34;;;0.99;100.00
5879;BME280;2965;42.640;23.370;2023-01-31T16:03:03;94320.00;;;0.99;100.00
5879;BME280;2965;42.640;23.370;2023-01-31T16:05:34;94322.44;;;1.01;100.00
5879;BME280;2965;42.640;23.370;2023-01-31T16:08:03;94330.88;;;1.03;100.00
5879;BME280;2965;42.640;23.370;2023-01-31T16:10:30;94330.88;;;1.03;100.00
5879;BME280;2965;42.640;23.370;2023-01-31T16:12:57;94335.09;;;1.04;100.00
5879;BME280;2965;42.640;23.370;2023-01-31T16:15:27;94333.88;;;1.08;100.00
5879;BME280;2965;42.640;23.370;2023-01-31T16:17:55;94335.50;;;1.09;100.00
5879;BME280;2965;42.640;23.370;2023-01-31T16:23:29;94337.41;;;1.07;100.00
5879;BME280;2965;42.640;23.370;2023-01-31T16:26:03;94338.31;;;1.06;100.00
5879;BME280;2965;42.640;23.370;2023-01-31T16:28:36;94342.28;;;1.10;100.00
5879;BME280;2965;42.640;23.370;2023-01-31T16:31:04;94339.03;;;1.08;100.00
5879;BME280;2965;42.640;23.370;2023-01-31T16:33:30;94345.81;;;1.09;100.00
5879;BME280;2965;42.640;23.370;2023-01-31T16:36:08;94344.19;;;1.08;100.00
5879;BME280;2965;42.640;23.370;2023-01-31T16:38:34;94350.00;;;1.10;100.00
5879;BME280;2965;42.640;23.370;2023-01-31T16:41:00;94352.59;;;1.10;100.00
5879;BME280;2965;42.640;23.370;2023-01-31T16:43:33;94359.38;;;1.11;100.00
5879;BME280;2965;42.640;23.370;2023-01-31T16:46:02;94350.00;;;1.10;100.00
5879;BME280;2965;42.640;23.370;2023-01-31T16:48:30;94360.06;;;1.13;100.00
5879;BME280;2965;42.640;23.370;2023-01-31T16:50:58;94361.00;;;1.12;100.00
5879;BME280;2965;42.640;23.370;2023-01-31T16:58:57;94371.06;;;1.15;100.00
5879;BME280;2965;42.640;23.370;2023-01-31T17:01:26;94377.97;;;1.15;100.00
5879;BME280;2965;42.640;23.370;2023-01-31T17:04:02;94375.38;;;1.15;100.00
5879;BME280;2965;42.640;23.370;2023-01-31T17:06:29;94376.47;;;1.12;100.00
5879;BME280;2965;42.640;23.370;2023-01-31T17:08:54;94373.19;;;1.10;100.00
5879;BME280;2965;42.640;23.370;2023-01-31T17:11:20;94375.91;;;1.09;100.00
5879;BME280;2965;42.640;23.370;2023-01-31T17:13:45;94380.94;;;1.10;100.00
5879;BME280;2965;42.640;23.370;2023-01-31T17:16:15;94376.97;;;1.06;100.00
5879;BME280;2965;42.640;23.370;2023-01-31T17:18:49;94378.91;;;1.14;100.00
5879;BME280;2965;42.640;23.370;2023-01-31T17:21:14;94379.31;;;1.09;100.00
5879;BME280;2965;42.640;23.370;2023-01-31T17:23:40;94386.78;;;1.12;100.00
5879;BME280;2965;42.640;23.370;2023-01-31T17:26:14;94382.13;;;1.06;100.00
5879;BME280;2965;42.640;23.370;2023-01-31T17:28:39;94394.09;;;1.07;100.00
5879;BME280;2965;42.640;23.370;2023-01-31T17:31:04;94386.34;;;1.07;100.00
5879;BME280;2965;42.640;23.370;2023-01-31T17:33:30;94390.81;;;1.05;100.00
5879;BME280;2965;42.640;23.370;2023-01-31T17:35:55;94391.63;;;1.06;100.00
5879;BME280;2965;42.640;23.370;2023-01-31T17:38:21;94391.91;;;1.03;100.00
5879;BME280;2965;42.640;23.370;2023-01-31T17:40:46;94392.97;;;1.00;100.00
5879;BME280;2965;42.640;23.370;2023-01-31T17:43:20;94396.47;;;0.99;100.00
5879;BME280;2965;42.640;23.370;2023-01-31T17:45:45;94389.72;;;0.98;100.00
5879;BME280;2965;42.640;23.370;2023-01-31T17:48:11;94397.88;;;1.03;100.00
5879;BME280;2965;42.640;23.370;2023-01-31T17:50:36;94397.88;;;1.03;100.00
5879;BME280;2965;42.640;23.370;2023-01-31T17:53:02;94399.88;;;0.99;100.00
5879;BME280;2965;42.640;23.370;2023-01-31T17:55:27;94401.63;;;0.99;100.00
5879;BME280;2965;42.640;23.370;2023-01-31T17:57:52;94399.31;;;0.96;100.00
5879;BME280;2965;42.640;23.370;2023-01-31T18:00:19;94396.72;;;0.96;100.00
5879;BME280;2965;42.640;23.370;2023-01-31T18:02:44;94403.50;;;0.97;100.00
5879;BME280;2965;42.640;23.370;2023-01-31T18:05:14;94406.09;;;0.97;100.00
5879;BME280;2965;42.640;23.370;2023-01-31T18:07:40;94402.97;;;0.93;100.00
5879;BME280;2965;42.640;23.370;2023-01-31T18:10:07;94409.75;;;0.94;100.00
5879;BME280;2965;42.640;23.370;2023-01-31T18:12:32;94419.25;;;0.94;100.00
5879;BME280;2965;42.640;23.370;2023-01-31T18:14:58;94408.94;;;0.94;100.00
5879;BME280;2965;42.640;23.370;2023-01-31T18:17:24;94426.25;;;0.92;100.00
5879;BME280;2965;42.640;23.370;2023-01-31T18:19:49;94426.41;;;0.90;100.00
5879;BME280;2965;42.640;23.370;2023-01-31T18:22:15;94423.00;;;0.90;100.00
5879;BME280;2965;42.640;23.370;2023-01-31T18:24:42;94431.69;;;0.89;100.00
5879;BME280;2965;42.640;23.370;2023-01-31T18:27:07;94436.84;;;0.89;100.00
5879;BME280;2965;42.640;23.370;2023-01-31T18:29:32;94430.84;;;0.88;100.00
5879;BME280;2965;42.640;23.370;2023-01-31T18:31:58;94430.03;;;0.88;100.00
5879;BME280;2965;42.640;23.370;2023-01-31T18:34:27;94435.63;;;0.93;100.00
5879;BME280;2965;42.640;23.370;2023-01-31T18:36:52;94432.75;;;0.86;100.00
5879;BME280;2965;42.640;23.370;2023-01-31T18:39:18;94435.19;;;0.88;100.00
5879;BME280;2965;42.640;23.370;2023-01-31T18:41:43;94441.28;;;0.87;100.00
5879;BME280;2965;42.640;23.370;2023-01-31T18:44:08;94445.75;;;0.85;100.00
5879;BME280;2965;42.640;23.370;2023-01-31T18:46:34;94434.88;;;0.81;100.00
5879;BME280;2965;42.640;23.370;2023-01-31T18:48:59;94443.41;;;0.82;100.00
5879;BME280;2965;42.640;23.370;2023-01-31T18:51:25;94431.34;;;0.82;100.00
5879;BME280;2965;42.640;23.370;2023-01-31T18:53:50;94445.56;;;0.77;100.00
5879;BME280;2965;42.640;23.370;2023-01-31T18:56:18;94432.78;;;0.75;100.00
5879;BME280;2965;42.640;23.370;2023-01-31T18:58:45;94451.66;;;0.75;100.00
5879;BME280;2965;42.640;23.370;2023-01-31T19:01:12;94442.97;;;0.77;100.00
5879;BME280;2965;42.640;23.370;2023-01-31T19:03:39;94436.44;;;0.72;100.00
5879;BME280;2965;42.640;23.370;2023-01-31T19:06:14;94434.56;;;0.74;100.00
5879;BME280;2965;42.640;23.370;2023-01-31T19:08:40;94428.72;;;0.72;100.00
5879;BME280;2965;42.640;23.370;2023-01-31T19:11:11;94443.59;;;0.69;100.00
5879;BME280;2965;42.640;23.370;2023-01-31T19:13:37;94445.13;;;0.71;100.00
5879;BME280;2965;42.640;23.370;2023-01-31T19:16:11;94436.44;;;0.72;100.00
5879;BME280;2965;42.640;23.370;2023-01-31T19:18:38;94440.78;;;0.72;100.00
5879;BME280;2965;42.640;23.370;2023-01-31T19:21:23;94444.19;;;0.72;100.00
5879;BME280;2965;42.640;23.370;2023-01-31T19:23:50;94450.13;;;0.73;100.00
5879;BME280;2965;42.640;23.370;2023-01-31T19:26:16;94451.91;;;0.72;100.00
5879;BME280;2965;42.640;23.370;2023-01-31T19:28:42;94445.13;;;0.71;100.00
5879;BME280;2965;42.640;23.370;2023-01-31T19:31:09;94459.63;;;0.72;100.00
5879;BME280;2965;42.640;23.370;2023-01-31T19:33:36;94464.19;;;0.69;100.00
5879;BME280;2965;42.640;23.370;2023-01-31T19:36:12;94465.44;;;0.74;100.00
5879;BME280;2965;42.640;23.370;2023-01-31T19:38:38;94468.97;;;0.73;100.00
5879;BME280;2965;42.640;23.370;2023-01-31T19:41:12;94478.22;;;0.76;100.00
5879;BME280;2965;42.640;23.370;2023-01-31T19:43:38;94473.88;;;0.77;100.00
5879;BME280;2965;42.640;23.370;2023-01-31T19:46:04;94471.31;;;0.77;100.00
5879;BME280;2965;42.640;23.370;2023-01-31T19:48:30;94482.56;;;0.75;100.00
5879;BME280;2965;42.640;23.370;2023-01-31T19:50:57;94470.59;;;0.74;100.00
5879;BME280;2965;42.640;23.370;2023-01-31T19:53:23;94473.44;;;0.71;100.00
5879;BME280;2965;42.640;23.370;2023-01-31T19:55:52;94474.38;;;0.70;100.00
5879;BME280;2965;42.640;23.370;2023-01-31T19:58:19;94474.25;;;0.72;100.00
5879;BME280;2965;42.640;23.370;2023-01-31T20:00:44;94480.47;;;0.69;100.00
5879;BME280;2965;42.640;23.370;2023-01-31T20:03:10;94483.75;;;0.71;100.00
5879;BME280;2965;42.640;23.370;2023-01-31T20:05:36;94486.44;;;0.70;100.00
5879;BME280;2965;42.640;23.370;2023-01-31T20:08:03;94483.28;;;0.66;100.00
5879;BME280;2965;42.640;23.370;2023-01-31T20:10:28;94491.13;;;0.65;100.00
5879;BME280;2965;42.640;23.370;2023-01-31T20:12:55;94489.50;;;0.64;100.00
5879;BME280;2965;42.640;23.370;2023-01-31T20:15:21;94491.94;;;0.65;100.00
5879;BME280;2965;42.640;23.370;2023-01-31T20:20:27;94488.44;;;0.66;100.00
5879;BME280;2965;42.640;23.370;2023-01-31T20:22:52;94502.25;;;0.65;100.00
5879;BME280;2965;42.640;23.370;2023-01-31T20:25:18;94503.06;;;0.66;100.00